Time;durP1;ratioP1;P1;durP2;ratioP2;P2;SDS_P1;SDS_P2;PMS_P1;PMS_P2;Temp;Humidity;BMP_temperature;BMP_pressure;BME280_temperature;BME280_humidity;BME280_pressure;Samples;Min_cycle;Max_cycle;Signal;HPM_P1;HPM_P2
2022/03/05 00:00:55;;;;;;;14.23;7.75;;;;;;;;;;5033015;28;20132;-77
2022/03/05 00:03:20;;;;;;;;;;;-0.30;99.90;;;;;;5033366;28;20081;-77
2022/03/05 00:05:47;;;;;;;16.02;8.88;;;;;;;;;;5032864;28;19982;-78
2022/03/05 00:08:12;;;;;;;15.50;8.45;;;0.30;99.90;;;;;;5032802;28;20052;-78
2022/03/05 00:10:38;;;;;;;12.68;8.30;;;;;;;;;;5032642;28;20057;-76
2022/03/05 00:13:05;;;;;;;14.23;7.95;;;;;;;;;;5032774;28;20094;-78
2022/03/05 00:15:31;;;;;;;;;;;;;;;;;;5033227;28;20082;-77
2022/03/05 00:17:57;;;;;;;21.08;10.10;;;;;;;;;;5032240;28;19921;-77
2022/03/05 00:20:24;;;;;;;19.25;10.38;;;;;;;;;;5032617;28;20408;-76
2022/03/05 00:22:53;;;;;;;17.27;9.43;;;;;;;;;;5032250;28;20145;-78
2022/03/05 00:25:20;;;;;;;19.27;8.98;;;;;;;;;;5032670;28;20159;-76
2022/03/05 00:27:46;;;;;;;16.42;8.50;;;;;;;;;;5032390;28;20087;-77
2022/03/05 00:30:12;;;;;;;14.18;9.05;;;;;;;;;;5032432;28;20075;-78
2022/03/05 00:32:39;;;;;;;16.88;9.43;;;;;;;;;;5032525;28;20095;-76
2022/03/05 00:35:05;;;;;;;20.52;9.32;;;;;;;;;;5032227;28;20084;-78
2022/03/05 00:37:31;;;;;;;19.25;9.27;;;;;;;;;;5032620;28;20363;-78
2022/03/05 00:39:57;;;;;;;;;;;;;;;;;;5032654;28;20444;-77
2022/03/05 00:42:24;;;;;;;18.63;8.93;;;;;;;;;;5031106;28;19955;-77
2022/03/05 00:44:50;;;;;;;17.02;9.30;;;;;;;;;;5032242;28;20045;-76
2022/03/05 00:47:16;;;;;;;18.08;9.02;;;;;;;;;;5032249;28;20465;-76
2022/03/05 00:49:42;;;;;;;;;;;-0.30;99.90;;;;;;5032453;28;20136;-77
2022/03/05 00:52:08;;;;;;;17.33;9.00;;;;;;;;;;5032155;28;19964;-78
2022/03/05 00:54:34;;;;;;;15.82;9.38;;;;;;;;;;5032176;28;20049;-76
2022/03/05 00:57:01;;;;;;;16.48;9.13;;;;;;;;;;5032117;28;20047;-77
2022/03/05 00:59:27;;;;;;;17.55;9.18;;;;;;;;;;5032156;28;20052;-76
2022/03/05 01:01:53;;;;;;;17.10;9.45;;;;;;;;;;5031940;28;20076;-77
2022/03/05 01:04:19;;;;;;;19.80;9.40;;;;;;;;;;5031982;28;20088;-77
2022/03/05 01:06:45;;;;;;;16.17;9.55;;;;;;;;;;4998084;28;20054;-76
2022/03/05 01:09:11;;;;;;;16.67;9.40;;;;;;;;;;5014404;28;20159;-77
2022/03/05 01:11:37;;;;;;;16.98;9.18;;;;;;;;;;5031831;28;20049;-77
2022/03/05 01:14:03;;;;;;;19.60;10.55;;;;;;;;;;5031763;28;20053;-77
2022/03/05 01:16:30;;;;;;;;;;;;;;;;;;5032295;28;20462;-77
2022/03/05 01:18:56;;;;;;;18.20;9.77;;;;;;;;;;5031682;28;19979;-76
2022/03/05 01:21:22;;;;;;;14.00;9.27;;;;;;;;;;5013992;28;20100;-76
2022/03/05 01:23:48;;;;;;;16.52;9.15;;;;;;;;;;5031767;28;20053;-76
2022/03/05 01:26:13;;;;;;;18.33;10.35;;;-0.30;99.90;;;;;;5031889;28;20068;-76
2022/03/05 01:28:40;;;;;;;17.40;9.38;;;;;;;;;;5031737;28;20486;-76
2022/03/05 01:31:06;;;;;;;19.38;10.48;;;;;;;;;;5035630;28;20049;-77
2022/03/05 01:33:32;;;;;;;15.55;9.32;;;;;;;;;;5035516;28;20136;-76
2022/03/05 01:35:58;;;;;;;16.05;9.68;;;;;;;;;;5035843;28;20501;-76
2022/03/05 01:38:24;;;;;;;15.55;9.55;;;;;;;;;;5035781;28;20053;-77
2022/03/05 01:40:51;;;;;;;16.70;10.15;;;;;;;;;;5035531;28;20533;-77
2022/03/05 01:43:17;;;;;;;18.40;10.13;;;;;;;;;;5035801;28;20099;-77
2022/03/05 01:45:43;;;;;;;19.08;9.65;;;;;;;;;;5035405;28;20056;-76
2022/03/05 01:48:09;;;;;;;15.02;10.13;;;;;;;;;;5035320;28;20849;-77
2022/03/05 01:50:35;;;;;;;16.15;10.32;;;;;;;;;;5035400;28;20555;-76
2022/03/05 01:53:01;;;;;;;17.13;9.88;;;;;;;;;;5035234;28;20568;-77
2022/03/05 01:55:27;;;;;;;18.73;9.90;;;;;;;;;;5017760;28;20077;-78
2022/03/05 01:57:54;;;;;;;18.88;10.65;;;;;;;;;;5035259;28;20452;-78
2022/03/05 02:00:20;;;;;;;17.92;10.13;;;;;;;;;;5035405;28;20068;-76
2022/03/05 02:02:47;;;;;;;20.70;11.60;;;;;;;;;;5035062;28;20049;-77
2022/03/05 02:05:13;;;;;;;;;;;;;;;;;;5035753;28;20048;-78
2022/03/05 02:07:39;;;;;;;19.02;10.02;;;;;;;;;;5035085;28;19966;-78
2022/03/05 02:10:08;;;;;;;20.42;10.63;;;;;;;;;;5035188;28;20128;-77
2022/03/05 02:12:35;;;;;;;20.48;11.15;;;;;;;;;;5035073;28;20046;-78
2022/03/05 02:15:02;;;;;;;18.67;10.52;;;;;;;;;;5035044;28;20091;-79
2022/03/05 02:17:28;;;;;;;19.48;11.07;;;;;;;;;;5034884;28;20053;-79
2022/03/05 02:19:55;;;;;;;19.67;10.70;;;;;;;;;;5033665;28;20100;-78
2022/03/05 02:22:21;;;;;;;;;;;;;;;;;;5035254;28;20413;-77
2022/03/05 02:24:51;;;;;;;17.80;10.77;;;;;;;;;;5034821;28;19921;-78
2022/03/05 02:27:17;;;;;;;16.58;10.27;;;;;;;;;;5034884;28;20199;-78
2022/03/05 02:29:43;;;;;;;22.08;11.10;;;;;;;;;;5034729;28;20045;-78
2022/03/05 02:32:09;;;;;;;20.42;10.98;;;;;;;;;;5034945;28;20115;-79
2022/03/05 02:34:36;;;;;;;18.33;10.40;;;;;;;;;;5034644;28;20092;-77
2022/03/05 02:37:02;;;;;;;17.42;10.48;;;;;;;;;;5034735;28;20124;-78
2022/03/05 02:39:28;;;;;;;15.90;10.50;;;;;;;;;;5034627;28;20077;-78
2022/03/05 02:41:54;;;;;;;21.98;10.57;;;;;;;;;;5034223;28;20397;-78
2022/03/05 02:44:20;;;;;;;18.98;10.70;;;;;;;;;;5034563;28;20128;-78
2022/03/05 02:46:46;;;;;;;;;;;;;;;;;;5034671;28;21086;-79
2022/03/05 02:49:12;;;;;;;20.88;10.85;;;;;;;;;;5034596;28;20377;-79
2022/03/05 02:51:39;;;;;;;19.88;10.95;;;;;;;;;;5016694;28;20132;-79
2022/03/05 02:54:05;;;;;;;18.63;10.70;;;;;;;;;;5016460;28;20061;-78
2022/03/05 02:56:31;;;;;;;16.80;10.48;;;;;;;;;;5034316;28;20050;-79
2022/03/05 02:58:57;;;;;;;19.02;10.90;;;;;;;;;;5034078;28;20049;-78
2022/03/05 03:01:24;;;;;;;18.30;10.77;;;;;;;;;;5034078;28;20045;-78
2022/03/05 03:03:50;;;;;;;;;;;;;;;;;;5034577;28;20049;-79
2022/03/05 03:06:16;;;;;;;19.52;10.20;;;;;;;;;;5034154;28;19924;-77
2022/03/05 03:08:42;;;;;;;19.45;11.20;;;;;;;;;;5033981;28;20107;-77
2022/03/05 03:11:08;;;;;;;22.27;11.80;;;;;;;;;;5016564;28;20397;-78
2022/03/05 03:13:34;;;;;;;17.75;10.45;;;;;;;;;;5033683;28;20401;-78
2022/03/05 03:16:00;;;;;;;19.55;11.32;;;;;;;;;;5034001;28;20114;-79
2022/03/05 03:18:26;;;;;;;20.40;11.15;;;;;;;;;;5034046;28;20469;-77
2022/03/05 03:20:52;;;;;;;19.98;11.75;;;;;;;;;;5033864;28;20079;-78
2022/03/05 03:23:18;;;;;;;20.85;11.65;;;;;;;;;;5033622;28;20067;-79
2022/03/05 03:25:44;;;;;;;17.63;10.20;;;;;;;;;;5033652;28;20053;-78
2022/03/05 03:28:10;;;;;;;21.48;11.90;;;;;;;;;;5016125;28;20042;-78
2022/03/05 03:30:37;;;;;;;18.33;10.75;;;;;;;;;;5033492;28;20089;-77
2022/03/05 03:33:03;;;;;;;19.77;11.43;;;;;;;;;;5033580;28;20107;-78
2022/03/05 03:35:29;;;;;;;20.45;11.63;;;;;;;;;;5015871;28;20050;-79
2022/03/05 03:37:55;;;;;;;22.23;11.15;;;;;;;;;;5033498;28;20072;-77
2022/03/05 03:40:21;;;;;;;20.02;11.23;;;;;;;;;;5033476;28;20081;-78
2022/03/05 03:42:48;;;;;;;22.00;10.73;;;;;;;;;;5033291;28;20045;-78
2022/03/05 03:45:15;;;;;;;19.90;10.63;;;;;;;;;;5033252;28;20048;-79
2022/03/05 03:47:42;;;;;;;19.30;11.23;;;;;;;;;;5033246;28;20096;-77
2022/03/05 03:50:11;;;;;;;21.17;11.50;;;;;;;;;;5033462;28;20050;-78
2022/03/05 03:52:37;;;;;;;18.02;10.35;;;;;;;;;;5032514;28;20045;-78
2022/03/05 03:55:05;;;;;;;21.83;11.20;;;;;;;;;;5032988;28;20045;-79
2022/03/05 03:57:32;;;;;;;19.25;10.20;;;;;;;;;;5033047;28;20140;-78
2022/03/05 03:59:58;;;;;;;17.92;10.38;;;;;;;;;;5033132;28;20045;-78
2022/03/05 04:02:24;;;;;;;19.92;10.93;;;;;;;;;;5033213;28;20061;-78
2022/03/05 04:04:50;;;;;;;18.75;10.15;;;;;;;;;;5033056;28;20052;-78
2022/03/05 04:10:02;;;;;;;17.98;9.88;;;;;;;;;;5032705;28;20109;-77
2022/03/05 04:12:28;;;;;;;19.70;10.48;;;;;;;;;;5032826;28;20053;-77
2022/03/05 04:14:54;;;;;;;15.60;9.95;;;;;;;;;;5032879;28;20190;-78
2022/03/05 04:17:22;;;;;;;17.73;10.20;;;;;;;;;;5032788;28;20091;-78
2022/03/05 04:19:48;;;;;;;19.15;9.65;;;;;;;;;;5032694;28;20107;-77
2022/03/05 04:22:14;;;;;;;17.58;9.80;;;;;;;;;;5032677;28;20057;-78
2022/03/05 04:24:40;;;;;;;17.48;10.45;;;;;;;;;;5032509;28;20355;-78
2022/03/05 04:27:06;;;;;;;18.58;10.43;;;;;;;;;;5032400;28;20057;-78
2022/03/05 04:29:33;;;;;;;17.95;9.55;;;;;;;;;;5032493;28;20473;-78
2022/03/05 04:31:59;;;;;;;16.35;9.55;;;;;;;;;;5032378;28;20132;-78
2022/03/05 04:34:25;;;;;;;17.08;9.52;;;;;;;;;;5014592;28;20489;-77
2022/03/05 04:36:51;;;;;;;17.90;8.82;;;;;;;;;;5032424;28;20514;-77
2022/03/05 04:39:17;;;;;;;18.75;9.60;;;;;;;;;;5032239;28;20152;-76
2022/03/05 04:41:43;;;;;;;17.00;9.73;;;;;;;;;;5032512;28;20064;-77
2022/03/05 04:44:10;;;;;;;16.27;8.80;;;;;;;;;;5032251;28;20053;-77
2022/03/05 04:46:36;;;;;;;17.02;9.98;;;;;;;;;;5032308;28;20198;-77
2022/03/05 04:49:03;;;;;;;19.52;10.48;;;;;;;;;;5014671;28;20409;-76
2022/03/05 04:51:30;;;;;;;16.15;8.70;;;;;;;;;;5031964;28;20137;-78
2022/03/05 04:53:56;;;;;;;14.65;8.38;;;;;;;;;;5031988;28;20048;-76
2022/03/05 04:56:22;;;;;;;17.70;9.55;;;;;;;;;;5032259;28;20092;-78
2022/03/05 04:58:48;;;;;;;15.38;8.60;;;;;;;;;;5014725;28;20458;-78
2022/03/05 05:01:14;;;;;;;14.23;8.07;;;;;;;;;;5031981;28;20085;-78
2022/03/05 05:03:40;;;;;;;13.73;7.60;;;;;;;;;;5031263;28;20063;-77
2022/03/05 05:06:06;;;;;;;16.33;8.43;;;;;;;;;;5031790;28;20049;-78
2022/03/05 05:08:33;;;;;;;14.55;8.07;;;;;;;;;;5031841;28;20100;-74
2022/03/05 05:10:59;;;;;;;15.15;7.80;;;;;;;;;;5031814;28;20149;-72
2022/03/05 05:13:25;;;;;;;15.38;8.00;;;;;;;;;;5031879;28;20049;-72
2022/03/05 05:15:51;;;;;;;16.52;8.38;;;;;;;;;;5031993;28;20057;-72
2022/03/05 05:18:17;;;;;;;14.93;8.13;;;;;;;;;;5031833;28;20132;-72
2022/03/05 05:20:43;;;;;;;17.92;7.80;;;;;;;;;;5031850;28;20045;-73
2022/03/05 05:23:09;;;;;;;15.57;8.88;;;;;;;;;;5031620;28;20148;-72
2022/03/05 05:25:35;;;;;;;13.45;8.05;;;;;;;;;;5032173;28;20133;-73
2022/03/05 05:28:01;;;;;;;12.60;7.38;;;;;;;;;;5031691;28;20052;-74
2022/03/05 05:30:27;;;;;;;11.63;7.47;;;;;;;;;;5031714;28;20095;-73
2022/03/05 05:32:53;;;;;;;14.32;8.05;;;;;;;;;;5031795;28;20087;-73
2022/03/05 05:35:20;;;;;;;17.08;9.18;;;;;;;;;;5031595;28;20505;-73
2022/03/05 05:37:46;;;;;;;15.00;9.38;;;;;;;;;;5031567;28;20092;-73
2022/03/05 05:40:12;;;;;;;15.02;9.15;;;;;;;;;;5014008;28;20061;-74
2022/03/05 05:42:38;;;;;;;16.98;9.38;;;;;;;;;;5031805;28;20464;-73
2022/03/05 05:45:05;;;;;;;16.92;10.10;;;;;;;;;;5031637;28;20057;-73
2022/03/05 05:47:31;;;;;;;20.63;9.90;;;;;;;;;;5031640;28;20057;-73
2022/03/05 05:49:57;;;;;;;17.70;9.75;;;;;;;;;;5031480;28;20103;-73
2022/03/05 05:52:23;;;;;;;18.27;10.63;;;;;;;;;;5031372;28;20068;-73
2022/03/05 05:54:49;;;;;;;18.60;10.50;;;;;;;;;;5031640;28;20428;-73
2022/03/05 05:57:15;;;;;;;19.92;10.35;;;;;;;;;;5031685;28;20107;-73
2022/03/05 05:59:41;;;;;;;18.70;10.73;;;;;;;;;;5013890;28;20116;-73
2022/03/05 06:02:07;;;;;;;20.95;10.43;;;;;;;;;;5031452;28;20132;-73
2022/03/05 06:04:33;;;;;;;19.50;10.15;;;;;;;;;;5031444;28;20092;-74
2022/03/05 06:07:00;;;;;;;19.58;10.40;;;;;;;;;;5031275;28;20092;-73
2022/03/05 06:09:26;;;;;;;18.17;9.80;;;;;;;;;;5031542;28;20045;-73
2022/03/05 06:11:53;;;;;;;22.13;10.82;;;;;;;;;;5031268;28;20049;-73
2022/03/05 06:14:19;;;;;;;17.88;10.38;;;;;;;;;;5013422;28;20051;-73
2022/03/05 06:16:45;;;;;;;21.67;10.05;;;;;;;;;;5034427;28;20359;-73
2022/03/05 06:19:11;;;;;;;18.83;10.30;;;;;;;;;;5017293;28;20049;-72
2022/03/05 06:21:37;;;;;;;;;;;;;;;;;;5017566;28;20107;-73
2022/03/05 06:24:04;;;;;;;18.80;10.82;;;;;;;;;;5050565;28;20332;-73
2022/03/05 06:26:31;;;;;;;;;;;-1.10;99.90;;;;;;5017755;28;20053;-73
2022/03/05 06:28:57;;;;;;;23.98;10.90;;;;;;;;;;5017006;28;19921;-73
2022/03/05 06:31:24;;;;;;;21.02;10.88;;;;;;;;;;5034705;28;20056;-72
2022/03/05 06:33:50;;;;;;;;;;;;;;;;;;5034815;28;20478;-72
2022/03/05 06:36:16;;;;;;;19.80;10.50;;;;;;;;;;5034448;28;19983;-72
2022/03/05 06:38:42;;;;;;;19.20;10.45;;;;;;;;;;5034679;28;20053;-72
2022/03/05 06:41:08;;;;;;;20.05;10.57;;;;;;;;;;5033398;28;20050;-73
2022/03/05 06:43:34;;;;;;;24.33;9.85;;;;;;;;;;5034558;28;20132;-71
2022/03/05 06:46:00;;;;;;;20.73;11.13;;;;;;;;;;5034449;28;20163;-72
2022/03/05 06:48:26;;;;;;;19.25;10.65;;;;;;;;;;5034317;28;20052;-72
2022/03/05 06:50:52;;;;;;;20.08;10.23;;;;;;;;;;5034199;28;20139;-71
2022/03/05 06:53:18;;;;;;;15.43;9.50;;;;;;;;;;5034266;28;20053;-71
2022/03/05 06:55:44;;;;;;;18.90;10.40;;;;;;;;;;5034364;28;20096;-71
2022/03/05 06:58:10;;;;;;;19.35;10.25;;;;;;;;;;5034208;28;20045;-71
2022/03/05 07:00:36;;;;;;;18.67;10.65;;;;;;;;;;5034167;28;20081;-71
2022/03/05 07:03:02;;;;;;;20.50;11.38;;;;;;;;;;5020731;28;20053;-70
2022/03/05 07:05:29;;;;;;;23.05;11.43;;;;;;;;;;5014334;28;20107;-71
2022/03/05 07:07:55;;;;;;;21.08;12.00;;;;;;;;;;5012687;28;20050;-69
2022/03/05 07:10:21;;;;;;;18.55;11.32;;;;;;;;;;5014178;28;20052;-68
2022/03/05 07:12:47;;;;;;;22.15;11.32;;;;;;;;;;4996362;28;20050;-67
2022/03/05 07:15:13;;;;;;;18.10;10.90;;;;;;;;;;5013809;28;20046;-68
2022/03/05 07:17:46;;;;;;;26.77;10.77;;;;;;;;;;5013847;28;20056;-70
2022/03/05 07:20:12;;;;;;;18.83;11.35;;;;;;;;;;5013747;28;20042;-70
2022/03/05 07:22:38;;;;;;;19.08;11.90;;;;;;;;;;5013699;28;20053;-70
2022/03/05 07:25:05;;;;;;;18.50;11.48;;;;;;;;;;5013751;28;20096;-70
2022/03/05 07:27:31;;;;;;;19.08;11.98;;;;;;;;;;5012684;28;20049;-69
2022/03/05 07:29:57;;;;;;;18.08;10.82;;;;;;;;;;4995902;28;20460;-70
2022/03/05 07:32:23;;;;;;;21.73;11.40;;;;;;;;;;5012364;28;20433;-69
2022/03/05 07:34:49;;;;;;;17.05;10.63;;;;;;;;;;5013264;28;20116;-69
2022/03/05 07:37:15;;;;;;;18.92;10.82;;;;;;;;;;5019261;28;20084;-69
2022/03/05 07:39:41;;;;;;;18.23;10.43;;;;;;;;;;5032886;28;20045;-69
2022/03/05 07:42:07;;;;;;;17.90;10.43;;;;;;;;;;5031870;28;20057;-69
2022/03/05 07:44:33;;;;;;;16.48;10.27;;;;;;;;;;4995118;28;20148;-70
2022/03/05 07:46:59;;;;;;;19.23;10.43;;;;;;;;;;4995222;28;20058;-70
2022/03/05 07:49:26;;;;;;;14.68;9.68;;;;;;;;;;5013283;28;20050;-70
2022/03/05 07:51:52;;;;;;;21.15;10.25;;;;;;;;;;5012940;28;20060;-71
2022/03/05 07:54:18;;;;;;;19.85;10.43;;;;;;;;;;5012915;28;20053;-70
2022/03/05 07:56:46;;;;;;;16.02;9.90;;;;;;;;;;5015074;28;20298;-69
2022/03/05 07:59:12;;;;;;;20.42;10.02;;;;;;;;;;5032365;28;20061;-69
2022/03/05 08:01:38;;;;;;;20.20;10.10;;;;;;;;;;5032840;28;20052;-69
2022/03/05 08:04:04;;;;;;;17.85;10.55;;;;;;;;;;5015090;28;20042;-69
2022/03/05 08:06:30;;;;;;;21.45;10.73;;;;;;;;;;5033077;28;20056;-69
2022/03/05 08:08:58;;;;;;;16.15;9.88;;;;;;;;;;5032876;28;20452;-69
2022/03/05 08:11:24;;;;;;;17.88;10.43;;;;;;;;;;5032733;28;20082;-69
2022/03/05 08:13:50;;;;;;;20.75;11.32;;;;;;;;;;5032742;28;20106;-69
2022/03/05 08:16:16;;;;;;;18.75;10.48;;;;;;;;;;5015143;28;20053;-69
2022/03/05 08:18:42;;;;;;;19.52;10.02;;;;;;;;;;5032940;28;20049;-69
2022/03/05 08:21:09;;;;;;;22.08;10.90;;;;;;;;;;5032738;28;20090;-70
2022/03/05 08:23:35;;;;;;;21.77;11.05;;;;;;;;;;5032728;28;20068;-69
2022/03/05 08:26:01;;;;;;;19.27;10.98;;;;;;;;;;5032583;28;20099;-69
2022/03/05 08:28:27;;;;;;;19.83;11.15;;;;;;;;;;5032523;28;20048;-69
2022/03/05 08:30:53;;;;;;;19.70;10.95;;;;;;;;;;5014675;28;20137;-69
2022/03/05 08:33:21;;;;;;;24.00;12.63;;;1.70;99.90;;;;;;5032524;28;20052;-69
2022/03/05 08:35:47;;;;;;;18.17;10.98;;;;;;;;;;5032597;28;20124;-69
2022/03/05 08:38:14;;;;;;;19.17;11.55;;;;;;;;;;5032286;28;20390;-69
2022/03/05 08:40:40;;;;;;;20.83;11.85;;;;;;;;;;5032424;28;20114;-69
2022/03/05 08:43:06;;;;;;;;;;;;;;;;;;5032606;28;20045;-69
2022/03/05 08:45:32;;;;;;;22.60;11.95;;;;;;;;;;5032248;28;19929;-69
2022/03/05 08:47:59;;;;;;;18.65;10.80;;;;;;;;;;5014565;28;20049;-69
2022/03/05 08:50:25;;;;;;;19.52;11.45;;;;;;;;;;5032237;28;20056;-69
2022/03/05 08:52:51;;;;;;;22.60;12.23;;;;;;;;;;5032310;28;20045;-69
2022/03/05 08:55:17;;;;;;;19.80;12.23;;;;;;;;;;5031940;28;20048;-68
2022/03/05 08:57:43;;;;;;;20.67;12.20;;;;;;;;;;5031990;28;20121;-69
2022/03/05 09:00:10;;;;;;;19.27;11.70;;;;;;;;;;5032135;28;20046;-69
2022/03/05 09:02:36;;;;;;;22.00;12.00;;;;;;;;;;5032216;28;20068;-69
2022/03/05 09:05:03;;;;;;;18.58;11.35;;;;;;;;;;5031965;28;20077;-69
2022/03/05 09:07:29;;;;;;;19.85;11.40;;;;;;;;;;5032046;28;20046;-69
2022/03/05 09:09:55;;;;;;;;;;;2.30;99.90;;;;;;5032347;28;20055;-70
2022/03/05 09:12:21;;;;;;;18.55;10.80;;;;;;;;;;4997611;28;20424;-69
2022/03/05 09:14:48;;;;;;;20.98;11.45;;;;;;;;;;5032024;28;20103;-69
2022/03/05 09:17:15;;;;;;;19.38;10.95;;;;;;;;;;5031925;28;20200;-69
2022/03/05 09:19:41;;;;;;;19.63;11.07;;;;;;;;;;5031939;28;20413;-70
2022/03/05 09:22:09;;;;;;;20.70;10.70;;;;;;;;;;5014161;28;20338;-69
2022/03/05 09:24:35;;;;;;;19.70;11.07;;;;;;;;;;5031787;28;20052;-69
2022/03/05 09:27:01;;;;;;;20.67;10.98;;;;;;;;;;5031694;28;20409;-69
2022/03/05 09:29:27;;;;;;;21.35;10.90;;;;;;;;;;5032019;28;20104;-69
2022/03/05 09:31:53;;;;;;;21.52;10.68;;;;;;;;;;5031714;28;20500;-69
2022/03/05 09:34:19;;;;;;;20.88;10.73;;;;;;;;;;5014029;28;20148;-69
2022/03/05 09:36:45;;;;;;;20.55;11.38;;;;;;;;;;5014144;28;20474;-70
2022/03/05 09:39:11;;;;;;;20.13;10.52;;;;;;;;;;5014102;28;20505;-70
2022/03/05 09:41:41;;;;;;;18.90;9.75;;;3.40;99.90;;;;;;5014121;28;20052;-70
2022/03/05 09:44:07;;;;;;;18.52;10.65;;;3.50;99.90;;;;;;5031440;28;20493;-71
2022/03/05 09:46:34;;;;;;;19.70;10.48;;;;;;;;;;5031780;28;20049;-70
2022/03/05 09:49:02;;;;;;;20.95;11.52;;;;;;;;;;5031610;28;20049;-69
2022/03/05 09:51:28;;;;;;;25.42;12.07;;;;;;;;;;5034346;28;20045;-70
2022/03/05 09:53:55;;;;;;;19.35;10.15;;;;;;;;;;5035289;28;20052;-69
2022/03/05 09:56:21;;;;;;;19.13;9.98;;;;;;;;;;5035216;28;20053;-69
2022/03/05 09:58:48;;;;;;;17.90;9.07;;;;;;;;;;5018008;28;20477;-70
2022/03/05 10:01:15;;;;;;;17.70;9.52;;;4.10;99.90;;;;;;5035336;28;20046;-70
2022/03/05 10:03:41;;;;;;;;;;;;;;;;;;5035760;28;20041;-70
2022/03/05 10:06:17;;;;;;;17.77;10.77;;;;;;;;;;5035204;28;19921;-70
2022/03/05 10:08:44;;;;;;;18.13;9.60;;;4.10;99.90;;;;;;5035029;28;20049;-70
2022/03/05 10:11:11;;;;;;;15.38;9.30;;;;;;;;;;5035338;28;20057;-70
2022/03/05 10:13:38;;;;;;;14.52;9.48;;;;;;;;;;5035122;28;20045;-70
2022/03/05 10:16:20;;;;;;;18.98;9.95;;;4.40;99.90;;;;;;5017515;28;20084;-70
2022/03/05 10:18:46;;;;;;;17.02;9.30;;;;;;;;;;5035068;28;20049;-70
2022/03/05 10:21:12;;;;;;;16.63;10.02;;;;;;;;;;5034952;28;20085;-70
2022/03/05 10:23:42;;;;;;;15.82;9.40;;;4.50;99.90;;;;;;5016819;28;20486;-70
2022/03/05 10:26:09;;;;;;;17.17;9.55;;;4.90;99.90;;;;;;5017203;28;20056;-70
2022/03/05 10:28:38;;;;;;;16.80;10.13;;;4.60;99.90;;;;;;5034913;28;20056;-72
2022/03/05 10:31:09;;;;;;;14.40;9.00;;;4.60;99.90;;;;;;5017293;28;20107;-70
2022/03/05 10:33:36;;;;;;;18.52;9.98;;;;;;;;;;5034724;28;20098;-70
2022/03/05 10:36:07;;;;;;;16.13;9.30;;;;;;;;;;5034518;28;20057;-70
2022/03/05 10:38:43;;;;;;;17.10;8.95;;;;;;;;;;5017300;28;20050;-70
2022/03/05 10:41:09;;;;;;;17.50;10.30;;;4.40;99.90;;;;;;5034590;28;20049;-71
2022/03/05 10:43:35;;;;;;;18.35;10.25;;;4.80;99.90;;;;;;5034527;28;20401;-70
2022/03/05 10:46:00;;;;;;;20.57;10.33;;;4.70;99.90;;;;;;5017058;28;20056;-70
2022/03/05 10:48:28;;;;;;;21.92;10.73;;;;;;;;;;5034182;28;20288;-71
2022/03/05 10:51:01;;;;;;;19.30;10.68;;;5.10;99.90;;;;;;5034585;28;20143;-70
2022/03/05 10:53:43;;;;;;;18.58;10.10;;;;;;;;;;5034418;28;20115;-70
2022/03/05 10:56:26;;;;;;;19.90;10.65;;;;;;;;;;5033701;28;20494;-71
2022/03/05 10:59:22;;;;;;;19.52;10.20;;;;;;;;;;5033148;28;20049;-71
2022/03/05 11:01:48;;;;;;;21.73;11.40;;;5.30;99.90;;;;;;5032487;28;20103;-70
2022/03/05 11:04:14;;;;;;;19.65;10.23;;;5.40;99.90;;;;;;5033289;28;20053;-71
2022/03/05 11:06:41;;;;;;;20.50;10.77;;;;;;;;;;5033104;28;20045;-71
2022/03/05 11:09:08;;;;;;;18.23;10.73;;;;;;;;;;5015505;28;20144;-71
2022/03/05 11:11:39;;;;;;;20.30;10.70;;;;;;;;;;5032980;28;20132;-71
2022/03/05 11:14:12;;;;;;;20.65;11.23;;;;;;;;;;5032810;28;20082;-73
2022/03/05 11:16:38;;;;;;;20.40;11.02;;;5.30;99.90;;;;;;5033127;28;20107;-71
2022/03/05 11:19:03;;;;;;;17.23;9.75;;;5.50;99.90;;;;;;5032896;28;20132;-72
2022/03/05 11:21:30;;;;;;;17.73;10.30;;;5.50;99.90;;;;;;5029649;28;20041;-72
2022/03/05 11:23:59;;;;;;;22.60;11.52;;;;;;;;;;5032348;28;20488;-72
2022/03/05 11:26:28;;;;;;;19.67;10.88;;;;;;;;;;5032410;28;20140;-71
2022/03/05 11:28:54;;;;;;;19.08;10.68;;;5.70;99.90;;;;;;5032329;28;20132;-71
2022/03/05 11:31:21;;;;;;;18.73;10.73;;;5.70;99.90;;;;;;5032616;28;20136;-72
2022/03/05 11:33:48;;;;;;;17.63;10.48;;;5.80;99.90;;;;;;5032483;28;20149;-73
2022/03/05 11:36:27;;;;;;;21.17;11.35;;;;;;;;;;5011626;28;20049;-73
2022/03/05 11:39:13;;;;;;;19.42;10.93;;;;;;;;;;5012442;28;20137;-70
2022/03/05 11:41:50;;;;;;;16.05;10.18;;;5.90;99.90;;;;;;5012324;28;20359;-72
2022/03/05 11:44:18;;;;;;;17.02;10.45;;;5.70;99.90;;;;;;5011027;28;20128;-71
2022/03/05 11:46:44;;;;;;;18.38;10.15;;;6.10;99.90;;;;;;5010984;28;20477;-71
2022/03/05 11:49:11;;;;;;;16.13;10.50;;;5.90;99.90;;;;;;5012347;28;20064;-69
2022/03/05 11:51:54;;;;;;;20.35;10.70;;;5.70;99.90;;;;;;5012471;28;20056;-69
2022/03/05 11:54:20;;;;;;;15.13;9.93;;;5.60;99.90;;;;;;5012036;28;20046;-70
2022/03/05 11:57:00;;;;;;;18.23;10.15;;;6.10;99.90;;;;;;5018901;28;20056;-72
2022/03/05 11:59:34;;;;;;;17.48;9.80;;;6.00;99.90;;;;;;5031905;28;20150;-72
2022/03/05 12:02:00;;;;;;;16.83;10.18;;;6.60;99.90;;;;;;5031882;28;20438;-72
2022/03/05 12:04:28;;;;;;;17.55;10.10;;;6.20;99.90;;;;;;5031685;28;20060;-72
2022/03/05 12:07:04;;;;;;;21.77;10.75;;;6.40;99.90;;;;;;5030809;28;20075;-71
2022/03/05 12:09:37;;;;;;;19.52;11.18;;;6.30;99.90;;;;;;5031180;28;20053;-71
2022/03/05 12:12:09;;;;;;;18.30;11.88;;;6.30;99.90;;;;;;5030716;28;20060;-72
2022/03/05 12:15:03;;;;;;;19.60;11.52;;;6.30;99.90;;;;;;5031298;28;20101;-72
2022/03/05 12:17:46;;;;;;;20.35;11.52;;;6.30;99.90;;;;;;5031826;28;20537;-72
2022/03/05 12:20:25;;;;;;;19.23;11.40;;;6.40;99.90;;;;;;5031434;28;20149;-72
2022/03/05 12:23:03;;;;;;;21.60;11.05;;;;;;;;;;5031712;28;20162;-72
2022/03/05 12:25:40;;;;;;;18.05;9.85;;;6.80;99.90;;;;;;5030429;28;20060;-72
2022/03/05 12:28:13;;;;;;;19.70;11.00;;;6.70;99.90;;;;;;5031506;28;20168;-73
2022/03/05 12:30:39;;;;;;;19.75;11.07;;;6.80;99.90;;;;;;5030002;28;20048;-72
2022/03/05 12:33:06;;;;;;;;;;;6.70;99.90;;;;;;5030961;28;20041;-72
2022/03/05 12:35:32;;;;;;;19.88;11.38;;;6.70;99.90;;;;;;5029737;28;19925;-73
2022/03/05 12:37:58;;;;;;;17.58;10.15;;;6.80;99.90;;;;;;5031294;28;20067;-72
2022/03/05 12:40:26;;;;;;;17.70;10.57;;;6.80;99.90;;;;;;5031282;28;20079;-72
2022/03/05 12:42:53;;;;;;;19.55;11.48;;;6.40;99.90;;;;;;5029909;28;20056;-72
2022/03/05 12:45:21;;;;;;;18.38;10.77;;;6.60;99.90;;;;;;5031280;28;20084;-72
2022/03/05 12:47:47;;;;;;;20.48;11.02;;;6.90;99.90;;;;;;5031125;28;20056;-73
2022/03/05 12:50:33;;;;;;;18.20;10.73;;;7.10;99.90;;;;;;5030117;28;20053;-73
2022/03/05 12:53:09;;;;;;;17.92;10.57;;;7.10;99.90;;;;;;5031067;28;20490;-72
2022/03/05 12:55:38;;;;;;;19.63;11.07;;;7.50;99.90;;;;;;5031106;28;20064;-75
2022/03/05 12:58:10;;;;;;;18.30;10.50;;;7.60;99.90;;;;;;5030831;28;20477;-72
2022/03/05 13:00:37;;;;;;;16.90;11.10;;;8.40;99.90;;;;;;5029926;28;20594;-73
2022/03/05 13:03:04;;;;;;;20.48;11.70;;;8.00;99.90;;;;;;5031145;28;20056;-73
2022/03/05 13:05:30;;;;;;;19.75;11.40;;;9.10;99.90;;;;;;5029644;28;20058;-72
2022/03/05 13:07:55;;;;;;;19.13;11.70;;;7.90;99.90;;;;;;5030973;28;20060;-74
2022/03/05 13:10:21;;;;;;;19.25;11.52;;;9.50;99.90;;;;;;5030792;28;20053;-74
2022/03/05 13:12:47;;;;;;;16.08;10.65;;;8.40;99.90;;;;;;5030987;28;20053;-73
2022/03/05 13:15:42;;;;;;;16.88;10.15;;;10.30;99.90;;;;;;5030811;28;20057;-73
2022/03/05 13:18:13;;;;;;;15.85;10.30;;;8.50;99.90;;;;;;5026007;28;20062;-73
2022/03/05 13:20:39;;;;;;;15.40;10.10;;;8.10;99.90;;;;;;5030958;28;20106;-74
2022/03/05 13:23:05;;;;;;;16.67;10.15;;;7.90;99.90;;;;;;5030837;28;20057;-72
2022/03/05 13:25:38;;;;;;;16.92;10.45;;;9.00;99.90;;;;;;5032312;28;20049;-74
2022/03/05 13:28:05;;;;;;;16.17;10.45;;;9.20;99.90;;;;;;5034984;28;20061;-72
2022/03/05 13:30:31;;;;;;;18.10;11.65;;;8.20;99.90;;;;;;5034482;28;20049;-73
2022/03/05 13:32:56;;;;;;;15.63;10.65;;;8.60;99.90;;;;;;5034847;28;20121;-74
2022/03/05 13:35:27;;;;;;;20.58;11.00;;;8.30;99.90;;;;;;5034625;28;20099;-73
2022/03/05 13:37:55;;;;;;;17.30;10.88;;;8.50;99.90;;;;;;5034783;28;20099;-73
2022/03/05 13:40:20;;;;;;;22.27;11.60;;;9.30;99.90;;;;;;5034182;28;20082;-72
2022/03/05 13:42:46;;;;;;;17.13;11.20;;;9.60;99.90;;;;;;5034519;28;20187;-73
2022/03/05 13:45:15;;;;;;;16.15;11.60;;;8.30;99.90;;;;;;5022851;28;20117;-72
2022/03/05 13:47:45;;;;;;;17.88;11.60;;;9.00;99.90;;;;;;5023295;28;20046;-73
2022/03/05 13:50:12;;;;;;;15.10;10.60;;;8.90;99.90;;;;;;5010760;28;20422;-74
2022/03/05 13:52:51;;;;;;;16.83;11.82;;;9.00;99.90;;;;;;5042332;28;20515;-73
2022/03/05 13:55:17;;;;;;;29.70;11.13;;;8.80;99.90;;;;;;5020474;28;20383;-73
2022/03/05 13:57:54;;;;;;;17.88;10.98;;;8.50;99.90;;;;;;5051481;28;20496;-73
2022/03/05 14:00:25;;;;;;;16.98;10.23;;;9.40;99.90;;;;;;5035311;28;20076;-73
2022/03/05 14:02:53;;;;;;;17.23;11.32;;;7.80;99.90;;;;;;5020232;28;20493;-73